« Back
NWS Peachtree City, Ga » Text Product » ATL Terminal Aerodrome Forecast


Printer-friendly Version
Current Version              Previous Versions:   1  2  3  4  5  6  7  8  9  

Terminal Aerodrome Forecast

617
FTUS42 KFFC 270535
TAFATL
TAF
KATL 270535Z 2706/2812 19005KT P6SM SCT060
     FM271200 15004KT P6SM SCT040 BKN120
     FM271500 15008KT P6SM BKN050
     FM272300 13007KT P6SM FEW050 SCT250=

USA.gov is the U.S. government's official web portal to all federal, state and local government web resources and services.